Time;durP1;ratioP1;P1;durP2;ratioP2;P2;SDS_P1;SDS_P2;PMS_P1;PMS_P2;Temp;Humidity;BMP_temperature;BMP_pressure;BME280_temperature;BME280_humidity;BME280_pressure;Samples;Min_cycle;Max_cycle;Signal;HPM_P1;HPM_P2
2022/01/07 00:01:13;;;;;;;2.20;2.10;;;;;;;4.55;100.00;95179.44;5135260;27;20489;-54
2022/01/07 00:03:42;;;;;;;2.13;1.93;;;;;;;5.06;100.00;95244.13;5134697;27;20914;-54
2022/01/07 00:06:11;;;;;;;2.17;1.50;;;;;;;4.67;100.00;95261.56;5135864;27;20533;-54
2022/01/07 00:08:40;;;;;;;10.13;4.80;;;;;;;3.70;100.00;95255.31;5135541;27;20431;-54
2022/01/07 00:11:10;;;;;;;4.73;4.43;;;;;;;3.73;100.00;95260.09;5135433;27;20435;-54
2022/01/07 00:13:39;;;;;;;5.90;4.10;;;;;;;3.29;100.00;95263.22;5135748;27;20862;-54
2022/01/07 00:16:10;;;;;;;5.63;5.23;;;;;;;3.15;100.00;95269.69;5134845;27;20517;-54
2022/01/07 00:18:41;;;;;;;6.43;4.07;;;;;;;3.40;100.00;95272.94;5135015;27;20430;-54
2022/01/07 00:21:10;;;;;;;3.30;1.83;;;;;;;3.78;100.00;95268.06;5135452;27;20438;-54
2022/01/07 00:23:39;;;;;;;1.83;1.73;;;;;;;3.59;100.00;95276.28;5135427;27;20840;-54
2022/01/07 00:26:07;;;;;;;3.40;3.30;;;;;;;3.51;100.00;95259.06;5135013;27;20469;-54
2022/01/07 00:28:37;;;;;;;5.63;5.23;;;;;;;3.44;100.00;95276.69;5134514;27;20470;-54
2022/01/07 00:31:05;;;;;;;4.20;4.10;;;;;;;3.43;100.00;95266.44;5134484;27;20483;-54
2022/01/07 00:33:34;;;;;;;2.83;2.73;;;;;;;3.51;100.00;95245.97;5134643;27;20938;-54
2022/01/07 00:36:03;;;;;;;3.17;2.93;;;;;;;3.91;100.00;95243.47;5134550;27;20852;-53
2022/01/07 00:38:32;;;;;;;8.33;3.43;;;;;;;4.52;100.00;95274.38;5134586;27;20906;-54
2022/01/07 00:41:01;;;;;;;0.60;0.60;;;;;;;4.83;100.00;95252.91;5134700;27;20453;-54
2022/01/07 00:43:29;;;;;;;1.23;1.23;;;;;;;3.25;100.00;95086.63;5134632;27;20520;-54
2022/01/07 00:45:59;;;;;;;2.43;2.33;;;;;;;4.09;100.00;95274.78;5134740;27;20450;-54
2022/01/07 00:48:28;;;;;;;5.20;4.97;;;;;;;4.28;100.00;95267.56;5133993;27;20423;-54
2022/01/07 00:50:56;;;;;;;2.50;2.40;;;;;;;4.00;100.00;95278.00;5134878;27;20483;-54
2022/01/07 00:53:25;;;;;;;4.83;4.57;;;;;;;3.36;100.00;95287.53;5134626;27;20460;-54
2022/01/07 00:55:53;;;;;;;3.93;3.83;;;;;;;3.11;100.00;95290.28;5134620;27;20860;-54
2022/01/07 00:58:22;;;;;;;9.03;8.23;;;;;;;3.21;100.00;95292.38;5134497;27;20495;-54
2022/01/07 01:00:50;;;;;;;2.13;2.03;;;;;;;3.42;100.00;95268.25;5134430;27;21001;-54
2022/01/07 01:03:20;;;;;;;3.80;3.60;;;;;;;4.18;100.00;95273.41;5133818;27;20482;-54
2022/01/07 01:05:49;;;;;;;0.90;0.90;;;;;;;4.55;100.00;95271.28;5134804;27;20407;-54
2022/01/07 01:08:18;;;;;;;1.33;1.33;;;;;;;4.81;100.00;95283.06;5134229;27;20431;-54
2022/01/07 01:10:46;;;;;;;0.77;0.77;;;;;;;4.73;100.00;95276.34;5134008;27;20448;-53
2022/01/07 01:13:14;;;;;;;1.17;1.17;;;;;;;3.93;100.00;95253.69;5134125;27;20934;-54
2022/01/07 01:15:43;;;;;;;2.50;2.40;;;;;;;4.31;100.00;95277.59;5134082;27;20474;-54
2022/01/07 01:18:11;;;;;;;2.90;2.70;;;;;;;4.33;100.00;95276.34;5134176;27;20487;-54
2022/01/07 01:20:41;;;;;;;2.77;2.57;;;;;;;4.53;100.00;95278.56;5134112;27;20448;-54
2022/01/07 01:23:10;;;;;;;8.13;3.97;;;;;;;4.55;100.00;95249.50;5133877;27;20506;-54
2022/01/07 01:25:38;;;;;;;3.47;3.27;;;;;;;4.13;100.00;95230.53;5133972;27;20479;-54
2022/01/07 01:28:07;;;;;;;1.13;1.13;;;;;;;4.53;100.00;95264.69;5133980;27;20464;-54
2022/01/07 01:30:36;;;;;;;0.73;0.73;;;;;;;4.64;100.00;95262.00;5133430;27;20923;-54
2022/01/07 01:33:04;;;;;;;1.33;1.33;;;;;;;4.41;100.00;95252.38;5133866;27;20434;-54
2022/01/07 01:35:35;;;;;;;4.83;3.70;;;;;;;4.13;100.00;95264.63;5133649;27;20456;-54
2022/01/07 01:38:05;;;;;;;1.40;1.40;;;;;;;4.10;100.00;95265.09;5133946;27;20461;-54
2022/01/07 01:40:34;;;;;;;1.60;1.60;;;;;;;4.35;100.00;95242.81;5133200;27;20965;-54
2022/01/07 01:43:04;;;;;;;3.60;3.30;;;;;;;4.37;100.00;95218.97;5133549;27;20466;-54
2022/01/07 01:45:32;;;;;;;0.67;0.67;;;;;;;4.49;100.00;95265.16;5134130;27;20415;-54
2022/01/07 01:48:01;;;;;;;0.70;0.70;;;;;;;3.68;100.00;95246.06;5133687;27;20434;-54
2022/01/07 01:50:29;;;;;;;3.20;3.00;;;;;;;2.99;100.00;95257.25;5133073;27;21017;-54
2022/01/07 01:52:58;;;;;;;2.67;2.60;;;;;;;3.07;100.00;95262.97;5132781;27;20462;-54
2022/01/07 01:55:29;;;;;;;1.70;1.63;;;;;;;3.53;100.00;95280.59;5133679;27;20551;-54
2022/01/07 01:57:58;;;;;;;7.10;2.60;;;;;;;3.84;100.00;95267.16;5132736;27;20854;-54
2022/01/07 02:00:27;;;;;;;0.77;0.77;;;;;;;3.66;100.00;95269.91;5133003;27;20430;-54
2022/01/07 02:02:56;;;;;;;4.10;1.90;;;;;;;3.44;100.00;95249.72;5133446;27;20905;-54
2022/01/07 02:05:26;;;;;;;0.70;0.70;;;;;;;3.70;100.00;95229.09;5133573;27;20415;-54
2022/01/07 02:07:55;;;;;;;4.67;4.37;;;;;;;3.59;100.00;95185.34;5133097;27;20423;-54
2022/01/07 02:10:24;;;;;;;1.30;1.20;;;;;;;4.38;100.00;95263.34;5132812;27;20469;-54
2022/01/07 02:12:53;;;;;;;1.97;1.20;;;;;;;4.41;100.00;95267.31;5133266;27;20787;-54
2022/01/07 02:15:22;;;;;;;1.20;1.20;;;;;;;4.48;100.00;95260.91;5133178;27;20469;-54
2022/01/07 02:17:54;;;;;;;0.30;0.30;;;;;;;4.10;100.00;95170.69;5133370;27;20480;-54
2022/01/07 02:20:26;;;;;;;0.47;0.47;;;;;;;4.13;100.00;95217.41;5132755;27;20430;-54
2022/01/07 02:22:55;;;;;;;1.50;1.50;;;;;;;4.54;100.00;95261.00;5132421;27;20523;-54
2022/01/07 02:25:24;;;;;;;0.60;0.60;;;;;;;4.47;100.00;95269.84;5133360;27;20418;-54
2022/01/07 02:27:53;;;;;;;1.43;1.43;;;;;;;3.90;100.00;95212.22;5132524;27;20491;-54
2022/01/07 02:30:24;;;;;;;3.30;3.10;;;;;;;4.33;100.00;95249.31;5132711;27;20422;-54
2022/01/07 02:32:54;;;;;;;0.97;0.97;;;;;;;4.62;100.00;95255.41;5132597;27;20423;-54
2022/01/07 02:35:27;;;;;;;0.93;0.93;;;;;;;4.25;100.00;95262.81;5133251;27;20430;-54
2022/01/07 02:37:56;;;;;;;3.50;2.60;;;;;;;4.08;100.00;95257.44;5132288;27;20468;-54
2022/01/07 02:40:25;;;;;;;4.70;4.50;;;;;;;4.56;100.00;95254.50;5132820;27;20415;-54
2022/01/07 02:42:54;;;;;;;1.97;1.90;;;;;;;4.43;100.00;95221.44;5131991;28;20732;-53
2022/01/07 02:45:22;;;;;;;1.83;1.83;;;;;;;4.44;100.00;95257.16;5132142;27;20456;-53
2022/01/07 02:47:53;;;;;;;1.03;1.03;;;;;;;4.73;100.00;95268.47;5132664;28;20942;-53
2022/01/07 02:50:26;;;;;;;4.20;4.00;;;;;;;3.89;100.00;95248.13;5132763;27;20961;-53
2022/01/07 02:52:55;;;;;;;11.90;7.87;;;;;;;3.56;100.00;95266.25;5133569;27;20473;-53
2022/01/07 02:55:27;;;;;;;7.00;2.73;;;;;;;3.09;100.00;95263.53;5136731;27;21081;-53
2022/01/07 02:57:55;;;;;;;3.17;3.07;;;;;;;2.95;100.00;95245.63;5136213;27;20430;-53
2022/01/07 03:00:25;;;;;;;1.73;1.73;;;;;;;2.76;100.00;95221.31;5136621;27;20862;-53
2022/01/07 03:02:56;;;;;;;2.80;2.70;;;;;;;2.16;100.00;95094.22;5136371;27;20462;-53
2022/01/07 03:05:26;;;;;;;2.40;2.30;;;;;;;3.01;100.00;95231.66;5137069;27;20433;-53
2022/01/07 03:07:55;;;;;;;9.63;9.27;;;;;;;3.27;100.00;95274.94;5136634;27;20434;-53
2022/01/07 03:10:27;;;;;;;1.23;1.23;;;;;;;4.01;100.00;95255.97;5136575;27;20487;-54
2022/01/07 03:12:55;;;;;;;2.10;2.00;;;;;;;4.45;100.00;95273.72;5135951;27;20431;-52
2022/01/07 03:15:24;;;;;;;4.27;3.97;;;;;;;3.84;100.00;95284.72;5136516;27;20422;-52
2022/01/07 03:17:53;;;;;;;22.17;3.60;;;;;;;3.71;100.00;95284.94;5136126;27;20509;-52
2022/01/07 03:20:21;;;;;;;2.57;2.37;;;;;;;3.92;100.00;95275.72;5136140;27;20410;-52
2022/01/07 03:22:52;;;;;;;11.90;3.30;;;;;;;3.89;100.00;95286.66;5136277;27;20466;-53
2022/01/07 03:25:20;;;;;;;0.40;0.40;;;;;;;4.33;100.00;95289.47;5136334;27;20426;-53
2022/01/07 03:27:49;;;;;;;3.37;3.07;;;;;;;4.30;100.00;95289.91;5135919;27;20430;-53
2022/01/07 03:30:19;;;;;;;5.93;3.83;;;;;;;4.27;100.00;95293.03;5136076;27;20491;-53
2022/01/07 03:32:48;;;;;;;4.23;1.40;;;;;;;4.09;100.00;95287.09;5136222;27;20500;-54
2022/01/07 03:35:17;;;;;;;5.77;4.63;;;;;;;2.78;100.00;95119.06;5136138;27;20858;-53
2022/01/07 03:37:48;;;;;;;1.50;1.50;;;;;;;3.20;100.00;95296.81;5135463;27;20426;-53
2022/01/07 03:40:20;;;;;;;0.90;0.90;;;;;;;3.06;100.00;95307.72;5136351;27;20507;-54
2022/01/07 03:42:50;;;;;;;5.83;2.23;;;;;;;3.04;100.00;95304.50;5135409;27;20426;-54
2022/01/07 03:45:19;;;;;;;1.23;1.23;;;;;;;2.63;100.00;95246.88;5135699;27;20462;-54
2022/01/07 03:47:48;;;;;;;0.40;0.40;;;;;;;3.12;100.00;95298.94;5135761;27;20462;-54
2022/01/07 03:50:19;;;;;;;4.10;3.90;;;;;;;3.59;100.00;95311.13;5135760;27;20426;-54
2022/01/07 03:52:48;;;;;;;3.37;3.17;;;;;;;3.64;100.00;95313.09;5136264;27;20775;-54
2022/01/07 03:55:22;;;;;;;2.67;2.57;;;;;;;3.20;100.00;95312.53;5136115;27;20517;-54
2022/01/07 03:57:51;;;;;;;2.57;2.47;;;;;;;3.28;100.00;95316.66;5135660;27;20454;-54
2022/01/07 04:00:22;;;;;;;3.90;1.90;;;;;;;3.26;100.00;95289.91;5135267;27;20418;-54
2022/01/07 04:02:51;;;;;;;2.87;2.70;;;;;;;2.96;100.00;95265.56;5135886;27;20507;-54
2022/01/07 04:05:22;;;;;;;1.03;1.03;;;;;;;2.64;100.00;95256.31;5135246;27;20490;-54
2022/01/07 04:07:51;;;;;;;3.53;3.17;;;;;;;3.29;100.00;95305.13;5135312;27;20427;-54
2022/01/07 04:10:21;;;;;;;4.20;3.93;;;;;;;3.47;100.00;95299.81;5135841;27;20449;-54
2022/01/07 04:12:50;;;;;;;1.97;1.87;;;;;;;3.55;100.00;95304.75;5135390;27;20491;-54
2022/01/07 04:15:21;;;;;;;1.30;1.30;;;;;;;3.75;100.00;95310.47;5134894;27;20914;-54
2022/01/07 04:17:54;;;;;;;4.60;4.13;;;;;;;3.77;100.00;95312.84;5135162;27;20483;-54
2022/01/07 04:20:25;;;;;;;2.33;2.23;;;;;;;2.14;100.00;95323.69;5135377;27;20452;-54
2022/01/07 04:22:54;;;;;;;7.13;6.67;;;;;;;1.47;100.00;95337.56;5135013;27;20491;-55
2022/01/07 04:25:25;;;;;;;7.00;4.43;;;;;;;1.50;100.00;95337.91;5135098;27;20474;-55
2022/01/07 04:27:57;;;;;;;3.77;3.60;;;;;;;1.58;100.00;95334.25;5135544;27;20414;-54
2022/01/07 04:30:27;;;;;;;1.13;1.13;;;;;;;1.25;100.00;95275.25;5135064;27;20423;-54
2022/01/07 04:33:01;;;;;;;2.87;2.80;;;;;;;1.72;100.00;95322.69;5134312;27;20431;-54
2022/01/07 04:35:31;;;;;;;1.63;1.53;;;;;;;2.43;100.00;95330.81;5134834;27;20533;-54
2022/01/07 04:37:59;;;;;;;2.97;2.87;;;;;;;2.45;100.00;95321.72;5134880;27;20438;-54
2022/01/07 04:40:29;;;;;;;1.90;1.80;;;;;;;2.07;100.00;95329.00;5134882;27;20466;-54
2022/01/07 04:42:58;;;;;;;3.93;3.73;;;;;;;2.03;100.00;95342.69;5134429;27;20431;-54
2022/01/07 04:45:27;;;;;;;4.10;1.17;;;;;;;2.42;100.00;95339.69;5134491;27;20474;-54
2022/01/07 04:47:56;;;;;;;0.70;0.70;;;;;;;2.62;100.00;95332.41;5135233;27;20447;-54
2022/01/07 04:50:24;;;;;;;1.37;1.37;;;;;;;2.71;100.00;95340.78;5135099;27;20461;-54
2022/01/07 04:52:54;;;;;;;1.73;1.63;;;;;;;2.28;100.00;95257.97;5134661;27;20414;-54
2022/01/07 04:55:24;;;;;;;0.80;0.80;;;;;;;2.95;100.00;95327.59;5134869;27;20419;-54
2022/01/07 04:57:54;;;;;;;0.60;0.53;;;;;;;2.74;100.00;95329.84;5135068;27;20536;-54
2022/01/07 05:00:24;;;;;;;0.93;0.70;;;;;;;2.76;100.00;95335.69;5134085;27;20411;-55
2022/01/07 05:02:53;;;;;;;1.03;0.80;;;;;;;2.79;100.00;95327.38;5134484;27;20499;-53
2022/01/07 05:05:22;;;;;;;1.17;1.17;;;;;;;2.22;100.00;95326.84;5134568;27;20803;-53
2022/01/07 05:07:50;;;;;;;2.27;2.17;;;;;;;2.20;100.00;95347.13;5134379;27;20475;-54
2022/01/07 05:10:19;;;;;;;5.63;4.37;;;;;;;2.08;100.00;95348.88;5134661;27;20875;-53
2022/01/07 05:12:47;;;;;;;1.53;1.53;;;;;;;1.45;100.00;95238.53;5134514;27;20415;-53
2022/01/07 05:15:19;;;;;;;1.80;1.70;;;;;;;2.08;100.00;95364.56;5133238;27;20858;-53
2022/01/07 05:17:48;;;;;;;1.37;1.30;;;;;;;1.93;100.00;95351.03;5133275;27;20457;-54
2022/01/07 05:20:17;;;;;;;2.03;1.93;;;;;;;2.14;100.00;95370.75;5133856;27;20515;-55
2022/01/07 05:22:46;;;;;;;0.60;0.50;;;;;;;2.48;100.00;95355.31;5133755;27;20415;-54
2022/01/07 05:25:16;;;;;;;1.60;1.60;;;;;;;2.72;100.00;95361.50;5133718;27;20517;-54
2022/01/07 05:27:45;;;;;;;1.57;1.57;;;;;;;2.21;100.00;95369.66;5133891;27;20449;-55
2022/01/07 05:30:14;;;;;;;4.03;3.73;;;;;;;2.42;100.00;95364.03;5133578;27;20439;-53
2022/01/07 05:32:44;;;;;;;4.90;4.60;;;;;;;2.71;100.00;95361.72;5133526;27;20430;-54
2022/01/07 05:35:12;;;;;;;0.70;0.70;;;;;;;2.83;100.00;95360.75;5133733;27;20430;-54
2022/01/07 05:37:41;;;;;;;0.83;0.83;;;;;;;2.80;100.00;95370.84;5133625;27;20922;-54
2022/01/07 05:40:10;;;;;;;6.53;1.90;;;;;;;2.95;100.00;95371.28;5132484;27;20427;-54
2022/01/07 05:42:39;;;;;;;0.70;0.70;;;;;;;2.98;100.00;95368.22;5133640;27;20991;-54
2022/01/07 05:45:08;;;;;;;14.23;2.40;;;;;;;3.18;100.00;95347.81;5133417;27;20482;-54
2022/01/07 05:47:36;;;;;;;3.80;3.60;;;;;;;3.42;100.00;95361.78;5133751;27;20419;-54
2022/01/07 05:50:08;;;;;;;1.70;1.60;;;;;;;3.60;100.00;95372.19;5133149;27;20475;-53
2022/01/07 05:52:36;;;;;;;0.70;0.70;;;;;;;3.19;100.00;95373.78;5133421;27;20411;-54
2022/01/07 05:55:06;;;;;;;1.33;1.33;;;;;;;2.91;100.00;95364.91;5133468;27;20518;-54
2022/01/07 05:57:35;;;;;;;1.17;1.17;;;;;;;2.37;100.00;95394.47;5133031;27;20427;-55
2022/01/07 06:00:06;;;;;;;6.63;5.10;;;;;;;1.90;100.00;95372.34;5133010;27;20423;-54
2022/01/07 06:02:34;;;;;;;3.10;3.00;;;;;;;2.42;100.00;95387.56;5132926;27;20494;-54
2022/01/07 06:05:03;;;;;;;3.57;3.23;;;;;;;2.32;100.00;95392.50;5132982;27;20974;-53
2022/01/07 06:07:33;;;;;;;4.23;3.93;;;;;;;2.90;100.00;95408.59;5133471;27;20430;-54
2022/01/07 06:10:02;;;;;;;1.47;1.47;;;;;;;3.26;100.00;95399.91;5133174;27;20898;-55
2022/01/07 06:12:30;;;;;;;3.80;3.43;;;;;;;3.47;100.00;95396.75;5133343;27;20462;-53
2022/01/07 06:14:59;;;;;;;1.27;1.23;;;;;;;2.91;100.00;95313.31;5132314;27;20495;-54
2022/01/07 06:17:27;;;;;;;4.00;2.30;;;;;;;3.20;100.00;95395.53;5133269;27;20846;-53
2022/01/07 06:19:56;;;;;;;1.77;1.67;;;;;;;2.92;100.00;95393.47;5133051;27;20485;-53
2022/01/07 06:22:24;;;;;;;2.23;2.20;;;;;;;2.76;100.00;95372.31;5132874;27;20456;-53
2022/01/07 06:24:54;;;;;;;5.93;5.57;;;;;;;2.63;100.00;95404.66;5132912;27;20513;-53
2022/01/07 06:27:23;;;;;;;8.80;8.17;;;;;;;2.27;100.00;95409.84;5132860;27;20961;-53
2022/01/07 06:29:51;;;;;;;3.27;3.17;;;;;;;2.10;100.00;95409.56;5132655;27;20473;-53
2022/01/07 06:32:20;;;;;;;3.27;2.43;;;;;;;2.35;100.00;95420.03;5132764;27;20462;-53
2022/01/07 06:34:48;;;;;;;2.57;2.37;;;;;;;2.27;100.00;95426.34;5133192;27;20515;-53
2022/01/07 06:37:17;;;;;;;3.60;3.30;;;;;;;2.75;100.00;95420.44;5132463;27;20427;-53
2022/01/07 06:39:45;;;;;;;8.20;7.30;;;;;;;2.91;100.00;95427.72;5132660;27;20434;-53
2022/01/07 06:42:15;;;;;;;3.07;2.70;;;;;;;3.02;100.00;95422.53;5133155;27;20953;-53
2022/01/07 06:44:44;;;;;;;5.50;3.77;;;;;;;2.69;100.00;95429.16;5132704;27;20466;-53
2022/01/07 06:47:12;;;;;;;2.00;2.00;;;;;;;2.42;100.00;95423.38;5132543;28;20925;-53
2022/01/07 06:49:41;;;;;;;0.80;0.80;;;;;;;3.00;100.00;95436.88;5132623;28;20431;-53
2022/01/07 06:52:10;;;;;;;8.43;5.73;;;;;;;3.27;100.00;95440.75;5132553;28;20418;-54
2022/01/07 06:54:38;;;;;;;4.83;4.73;;;;;;;2.69;100.00;95448.28;5131940;27;20972;-52
2022/01/07 06:57:07;;;;;;;6.83;3.10;;;;;;;2.15;100.00;95407.13;5132193;28;20462;-54
2022/01/07 06:59:37;;;;;;;2.10;2.00;;;;;;;2.28;100.00;95390.50;5132565;27;20477;-54
2022/01/07 07:02:06;;;;;;;2.90;2.80;;;;;;;2.97;100.00;95440.72;5132484;27;20880;-53
2022/01/07 07:04:35;;;;;;;5.90;5.33;;;;;;;3.23;100.00;95447.47;5132195;28;20968;-54
2022/01/07 07:07:04;;;;;;;6.00;5.70;;;;;;;3.35;100.00;95431.78;5132834;28;20862;-54
2022/01/07 07:09:33;;;;;;;6.10;4.53;;;;;;;3.43;100.00;95442.78;5132380;28;20458;-54
2022/01/07 07:12:01;;;;;;;2.03;2.03;;;;;;;3.67;100.00;95443.66;5132304;27;20914;-54
2022/01/07 07:14:30;;;;;;;3.53;3.30;;;;;;;3.93;100.00;95445.91;5132333;27;20923;-54
2022/01/07 07:17:00;;;;;;;3.07;2.97;;;;;;;3.41;100.00;95454.50;5132464;28;20419;-54
2022/01/07 07:19:28;;;;;;;2.00;1.90;;;;;;;3.54;100.00;95452.50;5132145;28;20483;-54
2022/01/07 07:21:57;;;;;;;7.17;6.73;;;;;;;3.76;100.00;95452.81;5132611;27;20465;-54
2022/01/07 07:24:25;;;;;;;3.77;3.43;;;;;;;4.23;100.00;95446.66;5132463;27;20536;-54
2022/01/07 07:26:53;;;;;;;4.37;4.07;;;;;;;4.34;100.00;95447.69;5132430;28;20470;-54
2022/01/07 07:29:22;;;;;;;4.93;4.50;;;;;;;4.53;100.00;95438.66;5132263;28;20439;-55
2022/01/07 07:31:55;;;;;;;4.47;4.17;;;;;;;4.27;100.00;95450.44;5132031;28;20466;-54
2022/01/07 07:34:56;;;;;;;5.70;5.33;;;;;;;4.67;100.00;95444.50;5132432;28;20869;-54
2022/01/07 07:37:25;;;;;;;5.70;4.00;;;;;;;4.33;100.00;95446.06;5132125;28;20430;-55
2022/01/07 07:39:54;;;;;;;9.33;8.80;;;;;;;4.26;100.00;95443.56;5134657;27;20431;-55
2022/01/07 07:42:22;;;;;;;4.50;4.30;;;;;;;3.93;100.00;95439.84;5135624;27;20430;-54
2022/01/07 07:44:51;;;;;;;4.20;4.00;;;;;;;4.48;100.00;95449.84;5136218;27;20485;-55
2022/01/07 07:47:20;;;;;;;2.97;2.77;;;;;;;4.86;100.00;95444.13;5136033;27;20501;-55
2022/01/07 07:49:50;;;;;;;4.90;4.50;;;;;;;4.46;100.00;95444.03;5135880;27;20471;-55
2022/01/07 07:52:18;;;;;;;7.03;6.57;;;;;;;5.17;100.00;95439.50;5136061;27;20848;-55
2022/01/07 07:54:47;;;;;;;2.70;2.50;;;;;;;5.40;100.00;95440.25;5135401;27;20434;-55
2022/01/07 07:57:15;;;;;;;3.90;3.63;;;;;;;5.45;100.00;95444.81;5135973;27;20853;-55
2022/01/07 07:59:44;;;;;;;2.13;2.03;;;;;;;5.13;100.00;95468.09;5135358;27;20450;-55
2022/01/07 08:02:13;;;;;;;3.27;3.07;;;;;;;5.45;100.00;95450.88;5135188;27;20474;-55
2022/01/07 08:04:42;;;;;;;3.47;3.27;;;;;;;4.09;100.00;95243.31;5134469;27;20421;-55
2022/01/07 08:07:16;;;;;;;10.70;5.80;;;;;;;5.27;100.00;95439.72;5135458;27;20502;-55
2022/01/07 08:09:48;;;;;;;12.30;9.10;;;;;;;4.95;100.00;95442.78;5135424;27;20482;-55
2022/01/07 08:12:20;;;;;;;4.50;3.00;;;;;;;5.10;100.00;95444.91;5135158;27;20466;-55
2022/01/07 08:17:34;;;;;;;2.57;2.47;;;;;;;5.51;100.00;95414.97;5135673;27;20474;-55
2022/01/07 08:20:02;;;;;;;6.37;5.30;;;;;;;5.71;100.00;95441.63;5135290;27;20484;-54
2022/01/07 08:22:32;;;;;;;12.80;10.70;;;;;;;5.47;100.00;95433.03;5135023;27;20462;-54
2022/01/07 08:25:01;;;;;;;6.60;6.27;;;;;;;5.60;100.00;95447.72;5135546;27;20422;-53
2022/01/07 08:27:31;;;;;;;7.20;6.10;;;;;;;5.58;100.00;95452.44;5134897;27;20470;-53
2022/01/07 08:30:13;;;;;;;11.30;4.93;;;;;;;6.03;100.00;95452.47;5135191;27;20502;-53
2022/01/07 08:35:29;;;;;;;7.50;2.30;;;;;;;6.81;100.00;95450.56;5135016;27;20435;-53
2022/01/07 08:37:59;;;;;;;2.83;2.73;;;;;;;7.40;99.76;95442.88;5134262;27;20844;-53
2022/01/07 08:40:28;;;;;;;3.13;3.03;;;;;;;7.09;99.36;95433.78;5135025;27;20475;-54
2022/01/07 08:42:57;;;;;;;5.20;4.83;;;;;;;7.49;98.44;95436.13;5133205;27;20930;-54
2022/01/07 08:45:25;;;;;;;3.70;3.40;;;;;;;7.36;100.00;95434.66;5134320;27;20473;-54
2022/01/07 08:47:54;;;;;;;6.70;4.67;;;;;;;8.04;96.95;95422.72;5134766;27;20458;-54
2022/01/07 08:50:23;;;;;;;11.07;4.00;;;;;;;8.06;94.06;95423.25;5133131;27;20836;-53
2022/01/07 08:52:52;;;;;;;2.50;2.40;;;;;;;7.91;95.42;95423.13;5134475;27;20799;-53
2022/01/07 08:55:22;;;;;;;5.10;4.90;;;;;;;7.59;100.00;95425.69;5134508;27;20418;-53
2022/01/07 08:58:24;;;;;;;5.73;5.50;;;;;;;7.62;100.00;95423.34;5134293;27;20475;-53
2022/01/07 09:00:52;;;;;;;9.60;7.70;;;;;;;7.22;100.00;95437.91;5134294;27;20462;-53
2022/01/07 09:03:21;;;;;;;14.03;11.80;;;;;;;6.96;100.00;95437.59;5134285;27;20443;-53
2022/01/07 09:05:49;;;;;;;10.37;9.60;;;;;;;6.85;100.00;95435.06;5134073;27;20422;-53
2022/01/07 09:08:18;;;;;;;7.57;5.20;;;;;;;6.67;100.00;95432.69;5134468;27;20488;-53
2022/01/07 09:10:47;;;;;;;11.70;11.00;;;;;;;7.17;100.00;95420.19;5133328;27;20906;-53
2022/01/07 09:13:16;;;;;;;9.70;5.10;;;;;;;7.64;100.00;95405.44;5134418;27;20453;-53
2022/01/07 09:15:44;;;;;;;5.43;4.87;;;;;;;8.19;100.00;95412.28;5134283;27;20427;-53
2022/01/07 09:18:14;;;;;;;9.47;8.33;;;;;;;8.60;100.00;95405.50;5133979;27;20930;-53
2022/01/07 09:20:44;;;;;;;8.00;7.27;;;;;;;8.90;95.81;95403.06;5133475;27;20426;-53
2022/01/07 09:23:13;;;;;;;8.73;7.93;;;;;;;9.28;89.56;95394.78;5133820;27;20418;-53
2022/01/07 09:25:42;;;;;;;5.00;4.60;;;;;;;9.15;91.86;95344.19;5134323;27;20422;-52
2022/01/07 09:28:12;;;;;;;11.60;10.37;;;;;;;9.64;89.87;95390.38;5134184;27;20930;-53
2022/01/07 09:30:46;;;;;;;33.40;15.33;;;;;;;9.68;89.32;95393.28;5133985;27;20505;-53
2022/01/07 09:33:14;;;;;;;14.23;9.87;;;;;;;9.65;89.92;95386.69;5134321;27;20419;-53
2022/01/07 09:35:44;;;;;;;16.00;7.53;;;;;;;9.65;89.87;95386.69;5133778;27;20437;-53
2022/01/07 09:38:12;;;;;;;5.43;5.07;;;;;;;9.52;92.91;95380.03;5132717;27;20435;-53
2022/01/07 09:40:41;;;;;;;5.97;5.57;;;;;;;9.28;95.19;95352.47;5133462;27;20431;-53
2022/01/07 09:43:10;;;;;;;5.50;5.00;;;;;;;9.63;96.54;95380.84;5133537;27;20423;-52
2022/01/07 09:45:40;;;;;;;7.97;7.57;;;;;;;9.34;96.63;95363.81;5133384;27;20442;-52
2022/01/07 09:48:09;;;;;;;16.53;9.93;;;;;;;9.42;97.80;95358.03;5132754;27;20505;-52
2022/01/07 09:50:38;;;;;;;12.73;9.20;;;;;;;9.50;97.42;95349.59;5133588;27;20446;-51
2022/01/07 09:53:08;;;;;;;4.33;4.00;;;;;;;9.36;99.06;95362.50;5133017;27;20430;-52
2022/01/07 09:55:37;;;;;;;13.43;9.70;;;;;;;9.30;100.00;95366.22;5133259;27;20477;-54
2022/01/07 09:58:07;;;;;;;6.97;6.43;;;;;;;9.35;100.00;95341.63;5132766;27;20446;-52
2022/01/07 10:00:40;;;;;;;26.13;7.70;;;;;;;10.07;94.99;95354.69;5133110;27;20474;-52
2022/01/07 10:03:11;;;;;;;17.33;10.43;;;;;;;9.68;96.52;95362.34;5132438;27;20430;-52
2022/01/07 10:05:45;;;;;;;8.70;6.50;;;;;;;9.66;100.00;95356.53;5133331;27;21006;-54
2022/01/07 10:08:24;;;;;;;7.20;6.90;;;;;;;10.29;94.16;95354.47;5133010;27;20541;-52
2022/01/07 10:11:14;;;;;;;4.73;4.43;;;;;;;9.73;99.12;95353.59;5133050;27;20434;-52
2022/01/07 10:13:44;;;;;;;13.97;9.57;;;;;;;10.12;95.90;95355.53;5133213;27;20828;-52
2022/01/07 10:16:16;;;;;;;13.70;5.40;;;;;;;10.58;94.49;95339.56;5133130;27;20910;-52
2022/01/07 10:18:52;;;;;;;4.63;4.23;;;;;;;11.34;83.27;95279.88;5133116;27;20509;-52
2022/01/07 10:21:22;;;;;;;20.03;7.53;;;;;;;11.85;78.06;95335.34;5132825;27;20430;-53
2022/01/07 10:24:01;;;;;;;7.30;5.60;;;;;;;11.86;78.07;95327.13;5132818;27;20479;-53
2022/01/07 10:26:30;;;;;;;10.87;5.60;;;;;;;11.17;82.44;95316.59;5132714;27;20423;-53
2022/01/07 10:28:59;;;;;;;5.57;5.10;;;;;;;11.05;83.54;95318.78;5132885;27;20463;-53
2022/01/07 10:31:29;;;;;;;6.80;4.97;;;;;;;11.23;82.47;95328.75;5131491;27;20423;-53
2022/01/07 10:34:04;;;;;;;6.73;4.03;;;;;;;11.14;81.25;95301.22;5132780;27;20468;-53
2022/01/07 10:36:40;;;;;;;7.80;7.07;;;;;;;11.08;80.40;95315.56;5132867;27;20457;-53
2022/01/07 10:39:08;;;;;;;3.37;3.17;;;;;;;11.45;80.06;95278.78;5132579;27;20894;-53
2022/01/07 10:41:37;;;;;;;4.97;4.63;;;;;;;11.92;76.98;95288.81;5132522;27;20449;-53
2022/01/07 10:44:08;;;;;;;5.60;3.57;;;;;;;11.01;75.00;95168.41;5132690;28;20418;-53
2022/01/07 10:46:38;;;;;;;2.53;2.00;;;;;;;11.75;75.35;95300.88;5132395;28;20423;-54
2022/01/07 10:49:06;;;;;;;1.97;1.87;;;;;;;12.11;75.23;95299.56;5131969;28;20497;-54
2022/01/07 10:51:38;;;;;;;12.60;4.73;;;;;;;10.82;81.10;95237.19;5132196;27;20926;-54
2022/01/07 10:54:10;;;;;;;1.47;1.43;;;;;;;11.07;80.76;95236.28;5132895;27;20415;-54
2022/01/07 10:56:41;;;;;;;3.23;2.93;;;;;;;11.49;81.44;95285.09;5132677;27;20423;-54
2022/01/07 10:59:10;;;;;;;3.33;2.97;;;;;;;11.68;79.99;95279.16;5132280;28;20491;-55
2022/01/07 11:01:45;;;;;;;8.03;4.27;;;;;;;12.61;73.04;95269.84;5131828;28;20473;-55
2022/01/07 11:04:16;;;;;;;3.10;2.43;;;;;;;12.85;68.74;95269.81;5132486;27;20458;-55
2022/01/07 11:06:46;;;;;;;7.53;5.00;;;;;;;13.10;69.16;95268.75;5131815;28;20426;-55
2022/01/07 11:09:16;;;;;;;2.47;2.27;;;;;;;13.10;69.01;95260.78;5132682;28;20838;-55
2022/01/07 11:11:50;;;;;;;3.40;2.47;;;;;;;13.55;67.81;95254.03;5132212;28;20430;-54
2022/01/07 11:14:22;;;;;;;4.23;3.83;;;;;;;14.07;66.60;95255.59;5133410;27;20421;-56
2022/01/07 11:16:53;;;;;;;9.03;7.90;;;;;;;13.98;65.18;95248.28;5136131;27;20414;-57
2022/01/07 11:19:23;;;;;;;16.90;7.67;;;;;;;14.65;63.64;95245.28;5136255;27;20418;-59
2022/01/07 11:21:54;;;;;;;14.40;9.50;;;;;;;14.39;61.85;95242.28;5136158;27;20431;-60
2022/01/07 11:24:34;;;;;;;14.70;8.60;;;;;;;15.01;62.98;95238.91;5136524;27;20494;-60
2022/01/07 11:27:04;;;;;;;13.23;9.17;;;;;;;15.46;57.40;95186.44;5135715;27;20891;-60
2022/01/07 11:29:35;;;;;;;5.30;4.90;;;;;;;15.78;54.70;95217.47;5135866;27;21049;-60
2022/01/07 11:32:32;;;;;;;8.73;6.77;;;;;;;16.07;51.76;95233.06;5135899;27;20422;-59
2022/01/07 11:35:47;;;;;;;6.43;6.03;;;;;;;15.87;50.73;95224.47;5135893;27;20411;-59
2022/01/07 11:38:41;;;;;;;5.57;5.10;;;;;;;14.97;52.62;95219.28;5135645;27;20471;-59
2022/01/07 11:41:13;;;;;;;2.70;1.97;;;;;;;15.47;52.68;95224.63;5135150;27;20940;-60
2022/01/07 11:43:44;;;;;;;2.80;2.70;;;;;;;15.04;53.15;95216.97;5135590;27;20458;-59
2022/01/07 11:46:33;;;;;;;1.47;1.37;;;;;;;15.90;52.60;95212.38;5135915;27;20449;-60
2022/01/07 11:49:31;;;;;;;1.53;1.43;;;;;;;16.60;49.37;95164.28;5131849;27;20569;-61
2022/01/07 11:52:31;;;;;;;14.07;2.43;;;;;;;16.77;49.64;95203.72;5135678;27;20423;-61
2022/01/07 11:55:20;;;;;;;3.17;3.07;;;;;;;15.88;52.98;95211.91;5135749;27;20442;-60